Terminal Aerodrome Forecast
Issued by NWS Mt. Holly, NJ

Home | Current Version | Previous Version | Text Only | Print | Product List | Glossary On
Versions: 1 2 3 4 5 6 7 8 9 10 11 12 13 14
077
FTUS41 KPHI 222321
TAFRDG
TAF
KRDG 222321Z 2300/2324 32010G20KT P6SM OVC045
     FM230200 33008KT P6SM BKN045
     FM230700 32004KT P6SM SKC=

USA.gov is the U.S. government's official web portal to all federal, state and local government web resources and services.